Time;durP1;ratioP1;P1;durP2;ratioP2;P2;SDS_P1;SDS_P2;PMS_P1;PMS_P2;Temp;Humidity;BMP_temperature;BMP_pressure;BME280_temperature;BME280_humidity;BME280_pressure;Samples;Min_cycle;Max_cycle;Signal;HPM_P1;HPM_P2
2021/03/01 00:02:18;;;;;;;11.48;6.78;;;3.30;70.00;;;;;;4889983;29;27449;-58
2021/03/01 00:05:03;;;;;;;11.43;6.35;;;3.20;69.90;;;;;;4903008;29;27379;-59
2021/03/01 00:07:48;;;;;;;14.20;6.72;;;3.20;70.00;;;;;;4890623;29;27421;-58
2021/03/01 00:10:32;;;;;;;13.20;6.50;;;3.20;70.10;;;;;;4886587;29;27509;-57
2021/03/01 00:13:17;;;;;;;10.43;6.35;;;3.20;70.10;;;;;;4890114;29;26963;-58
2021/03/01 00:16:01;;;;;;;11.70;6.68;;;3.20;70.20;;;;;;4890186;29;27467;-59
2021/03/01 00:18:46;;;;;;;9.73;6.15;;;3.10;70.10;;;;;;4890440;29;27852;-58
2021/03/01 00:21:30;;;;;;;15.02;7.28;;;3.10;70.20;;;;;;4890382;29;27430;-58
2021/03/01 00:24:15;;;;;;;11.43;6.55;;;3.10;70.10;;;;;;4890420;29;27492;-58
2021/03/01 00:26:59;;;;;;;12.32;6.50;;;3.10;70.20;;;;;;4890319;29;27418;-58
2021/03/01 00:29:44;;;;;;;11.45;6.28;;;3.00;70.20;;;;;;4890249;29;27458;-59
2021/03/01 00:32:28;;;;;;;12.50;6.80;;;3.00;70.20;;;;;;4890179;29;27539;-58
2021/03/01 00:35:13;;;;;;;12.00;6.32;;;3.00;70.20;;;;;;4889776;29;27503;-59
2021/03/01 00:37:57;;;;;;;10.60;5.95;;;3.00;70.30;;;;;;4890170;29;27385;-59
2021/03/01 00:40:42;;;;;;;12.10;5.93;;;2.90;70.20;;;;;;4889430;29;27335;-58
2021/03/01 00:43:30;;;;;;;12.50;6.20;;;2.90;70.30;;;;;;4888994;29;27503;-58
2021/03/01 00:46:14;;;;;;;11.50;5.90;;;2.90;70.30;;;;;;4889796;29;27479;-58
2021/03/01 00:48:59;;;;;;;10.25;6.50;;;2.90;70.30;;;;;;4889958;29;27414;-58
2021/03/01 00:51:44;;;;;;;11.85;6.50;;;2.80;70.30;;;;;;4886916;29;27415;-58
2021/03/01 00:54:29;;;;;;;11.57;5.82;;;2.80;70.30;;;;;;4899094;29;27517;-58
2021/03/01 00:57:13;;;;;;;8.30;5.78;;;2.80;70.30;;;;;;4886905;29;27402;-59
2021/03/01 00:59:58;;;;;;;11.38;6.20;;;2.70;70.30;;;;;;4886836;29;27468;-59
2021/03/01 01:02:43;;;;;;;11.45;6.10;;;2.70;70.30;;;;;;4888934;29;27436;-59
2021/03/01 01:05:43;;;;;;;11.18;6.18;;;2.70;70.40;;;;;;4886713;29;27587;-58
2021/03/01 01:08:27;;;;;;;13.27;5.93;;;2.70;70.30;;;;;;4889232;29;27556;-58
2021/03/01 01:11:12;;;;;;;17.58;6.85;;;2.60;70.40;;;;;;4889718;29;27419;-58
2021/03/01 01:13:57;;;;;;;11.93;6.07;;;2.60;70.50;;;;;;4888604;29;27501;-58
2021/03/01 01:16:41;;;;;;;9.43;5.72;;;2.60;70.40;;;;;;4889555;29;27390;-57
2021/03/01 01:19:26;;;;;;;11.63;5.95;;;2.60;70.50;;;;;;4889638;29;27464;-58
2021/03/01 01:22:10;;;;;;;10.85;5.85;;;2.50;70.50;;;;;;4889238;29;27414;-57
2021/03/01 01:24:55;;;;;;;8.27;5.82;;;2.50;70.40;;;;;;4886434;29;27441;-58
2021/03/01 01:27:39;;;;;;;13.38;6.10;;;2.50;70.50;;;;;;4889379;29;27471;-58
2021/03/01 01:30:25;;;;;;;14.55;6.93;;;2.50;70.70;;;;;;4889174;29;27507;-52
2021/03/01 01:33:09;;;;;;;12.20;5.93;;;2.40;70.50;;;;;;4889087;29;27422;-59
2021/03/01 01:35:54;;;;;;;9.52;6.00;;;2.40;70.50;;;;;;4888558;29;27463;-58
2021/03/01 01:38:38;;;;;;;11.07;5.95;;;2.40;70.60;;;;;;4889021;29;27422;-59
2021/03/01 01:41:22;;;;;;;11.85;5.88;;;2.40;70.70;;;;;;4889431;29;27238;-58
2021/03/01 01:44:07;;;;;;;8.60;5.85;;;2.30;70.70;;;;;;4889325;29;27387;-58
2021/03/01 01:46:51;;;;;;;13.98;5.75;;;2.30;70.70;;;;;;4889211;29;27327;-58
2021/03/01 01:49:36;;;;;;;10.93;6.10;;;2.30;70.70;;;;;;4888956;29;27405;-58
2021/03/01 01:52:20;;;;;;;10.85;6.65;;;2.30;70.70;;;;;;4888976;29;27360;-58
2021/03/01 01:55:06;;;;;;;9.10;5.85;;;2.30;70.70;;;;;;4901103;29;27340;-58
2021/03/01 01:57:51;;;;;;;11.57;6.65;;;2.30;70.70;;;;;;4888805;29;27411;-58
2021/03/01 02:03:51;;;;;;;9.85;5.90;;;2.20;70.60;;;;;;4886314;29;27656;-59
2021/03/01 02:06:41;;;;;;;13.57;5.80;;;2.20;70.70;;;;;;4887347;29;27387;-58
2021/03/01 02:09:34;;;;;;;11.95;5.75;;;2.20;70.90;;;;;;4887655;29;27495;-59
2021/03/01 02:12:23;;;;;;;9.60;5.78;;;2.20;70.90;;;;;;4887298;29;27483;-59
2021/03/01 02:15:43;;;;;;;13.38;6.35;;;2.10;70.80;;;;;;4887224;29;27472;-59
2021/03/01 02:18:27;;;;;;;11.02;6.60;;;2.10;70.90;;;;;;4887862;29;27332;-59
2021/03/01 02:21:13;;;;;;;11.15;6.57;;;2.10;70.90;;;;;;4887216;29;27335;-59
2021/03/01 02:23:57;;;;;;;11.52;6.75;;;2.00;70.80;;;;;;4887493;29;27401;-59
2021/03/01 02:26:44;;;;;;;12.65;6.60;;;2.00;70.90;;;;;;4887531;29;27375;-58
2021/03/01 02:29:28;;;;;;;10.38;6.05;;;2.00;71.00;;;;;;4887049;29;27406;-59
2021/03/01 02:32:13;;;;;;;10.90;5.65;;;2.00;70.90;;;;;;4886358;29;27511;-58
2021/03/01 02:34:57;;;;;;;10.88;6.20;;;2.00;70.90;;;;;;4899472;29;27419;-58
2021/03/01 02:37:42;;;;;;;14.10;6.55;;;1.90;70.90;;;;;;4899650;29;27343;-50
2021/03/01 02:40:26;;;;;;;10.52;5.57;;;1.90;71.10;;;;;;4899838;29;27415;-55
2021/03/01 02:43:11;;;;;;;10.55;6.03;;;1.90;71.00;;;;;;4899594;29;27872;-59
2021/03/01 02:45:56;;;;;;;14.15;6.15;;;1.90;71.10;;;;;;4899727;29;27332;-59
2021/03/01 02:48:42;;;;;;;12.43;6.68;;;1.90;71.10;;;;;;4896426;29;27357;-58
2021/03/01 02:51:26;;;;;;;11.40;6.40;;;1.90;71.00;;;;;;4899800;29;27379;-59
2021/03/01 02:54:10;;;;;;;12.15;6.45;;;1.80;71.00;;;;;;4899393;29;27859;-59
2021/03/01 02:56:55;;;;;;;9.32;5.90;;;1.80;71.10;;;;;;4899814;29;27413;-59
2021/03/01 02:59:39;;;;;;;15.02;6.30;;;1.80;71.00;;;;;;4899348;29;27387;-59
2021/03/01 03:02:24;;;;;;;12.90;6.38;;;1.80;71.00;;;;;;4873747;29;761508;-58
2021/03/01 03:05:11;;;;;;;12.13;6.60;;;1.70;70.90;;;;;;4900841;29;27856;-57
2021/03/01 03:07:55;;;;;;;13.20;6.68;;;1.70;71.00;;;;;;4891272;29;27323;-58
2021/03/01 03:10:40;;;;;;;12.65;6.88;;;1.70;71.10;;;;;;4891478;29;27316;-58
2021/03/01 03:13:25;;;;;;;11.98;6.72;;;1.70;71.10;;;;;;4903851;29;27363;-55
2021/03/01 03:16:09;;;;;;;13.07;6.72;;;1.70;71.00;;;;;;4903596;29;27339;-58
2021/03/01 03:18:54;;;;;;;12.23;7.28;;;1.60;71.00;;;;;;4903602;29;27417;-58
2021/03/01 03:21:39;;;;;;;12.30;7.15;;;1.60;71.00;;;;;;4891083;29;27400;-58
2021/03/01 03:24:23;;;;;;;12.95;6.65;;;1.60;71.00;;;;;;4903780;29;27347;-59
2021/03/01 03:27:08;;;;;;;14.10;6.72;;;1.60;71.00;;;;;;4890958;29;27476;-59
2021/03/01 03:29:52;;;;;;;10.63;6.45;;;1.60;71.10;;;;;;4891189;29;27494;-59
2021/03/01 03:32:37;;;;;;;9.95;6.47;;;1.50;71.00;;;;;;4888211;29;27406;-59
2021/03/01 03:35:22;;;;;;;13.93;6.40;;;1.50;71.10;;;;;;4903261;29;27527;-57
2021/03/01 03:38:16;;;;;;;11.40;6.55;;;1.50;71.20;;;;;;4903483;29;27449;-59
2021/03/01 03:41:01;;;;;;;15.02;6.80;;;1.50;71.20;;;;;;4890736;29;27582;-58
2021/03/01 03:43:45;;;;;;;12.15;6.53;;;1.50;71.30;;;;;;4888026;29;27439;-58
2021/03/01 03:46:30;;;;;;;9.50;5.72;;;1.40;71.20;;;;;;4903506;29;27451;-58
2021/03/01 03:49:14;;;;;;;12.70;6.72;;;1.40;71.10;;;;;;4903118;29;27889;-58
2021/03/01 03:51:59;;;;;;;11.32;6.35;;;1.40;71.20;;;;;;4902919;29;27539;-59
2021/03/01 03:54:45;;;;;;;10.52;6.20;;;1.40;71.20;;;;;;4903386;29;27439;-58
2021/03/01 03:57:32;;;;;;;11.32;6.75;;;1.40;71.20;;;;;;4902886;29;27466;-59
2021/03/01 04:00:16;;;;;;;11.75;7.03;;;1.40;71.30;;;;;;4890750;29;27438;-51
2021/03/01 04:03:05;;;;;;;12.07;7.25;;;1.40;71.30;;;;;;4902463;29;27518;-59
2021/03/01 04:05:51;;;;;;;11.45;6.78;;;1.30;71.30;;;;;;4899577;29;27408;-58
2021/03/01 04:08:36;;;;;;;13.43;8.00;;;1.30;71.30;;;;;;4890667;29;27312;-59
2021/03/01 04:11:22;;;;;;;10.52;6.60;;;1.30;71.30;;;;;;4902881;29;27360;-59
2021/03/01 04:14:06;;;;;;;12.10;7.05;;;1.30;71.30;;;;;;4900038;29;27384;-59
2021/03/01 04:16:53;;;;;;;10.25;6.78;;;1.30;71.40;;;;;;4888980;29;27416;-53
2021/03/01 04:19:38;;;;;;;10.95;6.93;;;1.20;71.30;;;;;;4889464;29;27441;-57
2021/03/01 04:22:23;;;;;;;14.75;7.75;;;1.20;71.20;;;;;;4902628;29;27491;-59
2021/03/01 04:25:08;;;;;;;12.90;7.68;;;1.20;71.40;;;;;;4889539;29;27655;-58
2021/03/01 04:27:52;;;;;;;12.73;7.30;;;1.20;71.40;;;;;;4903024;29;27335;-58
2021/03/01 04:30:37;;;;;;;11.05;6.97;;;1.20;71.50;;;;;;4902940;29;27339;-59
2021/03/01 04:33:21;;;;;;;12.07;6.85;;;1.20;71.70;;;;;;4902582;29;27986;-59
2021/03/01 04:36:06;;;;;;;13.80;6.95;;;1.10;71.30;;;;;;4902143;29;27339;-59
2021/03/01 04:38:50;;;;;;;12.38;7.25;;;1.10;71.40;;;;;;4890229;29;27336;-58
2021/03/01 04:41:35;;;;;;;12.00;6.40;;;1.10;71.50;;;;;;4889892;29;27384;-58
2021/03/01 04:44:19;;;;;;;14.85;6.63;;;1.10;71.50;;;;;;4890040;29;27327;-58
2021/03/01 04:47:04;;;;;;;11.65;6.72;;;1.00;71.40;;;;;;4889742;29;27404;-58
2021/03/01 04:49:49;;;;;;;12.38;7.10;;;1.00;72.10;;;;;;4902280;29;27411;-58
2021/03/01 04:52:34;;;;;;;13.70;6.35;;;1.00;71.30;;;;;;4890021;29;27385;-59
2021/03/01 04:55:18;;;;;;;14.27;7.28;;;1.00;71.30;;;;;;4889730;29;27333;-58
2021/03/01 04:58:03;;;;;;;14.35;7.38;;;1.00;71.30;;;;;;4889784;29;27351;-57
2021/03/01 05:00:47;;;;;;;11.48;6.38;;;1.00;71.40;;;;;;4902351;29;27423;-58
2021/03/01 05:03:32;;;;;;;10.52;6.03;;;1.00;71.40;;;;;;4902405;29;27429;-58
2021/03/01 05:06:17;;;;;;;15.40;6.85;;;0.90;71.40;;;;;;4902330;29;27438;-59
2021/03/01 05:09:02;;;;;;;10.95;7.00;;;0.90;71.30;;;;;;4902437;29;27426;-59
2021/03/01 05:11:47;;;;;;;15.98;6.57;;;0.90;71.20;;;;;;4889755;29;27463;-59
2021/03/01 05:14:32;;;;;;;14.50;7.88;;;0.90;71.30;;;;;;4889201;29;27588;-59
2021/03/01 05:17:16;;;;;;;11.52;6.85;;;0.80;71.40;;;;;;4889592;29;27852;-58
2021/03/01 05:20:01;;;;;;;13.82;6.97;;;0.80;71.40;;;;;;4889536;29;27482;-58
2021/03/01 05:22:45;;;;;;;12.80;6.38;;;0.80;71.40;;;;;;4889416;29;27442;-58
2021/03/01 05:25:30;;;;;;;13.00;6.90;;;0.80;71.50;;;;;;4889335;29;27470;-58
2021/03/01 05:28:14;;;;;;;11.60;6.28;;;0.80;71.40;;;;;;4889236;29;27475;-58
2021/03/01 05:30:59;;;;;;;16.33;6.82;;;0.80;71.50;;;;;;4888738;29;27541;-57
2021/03/01 05:33:45;;;;;;;13.25;7.05;;;0.80;71.40;;;;;;4889182;29;27475;-57
2021/03/01 05:36:29;;;;;;;14.05;7.32;;;0.80;71.50;;;;;;4898688;29;27452;-58
2021/03/01 05:39:14;;;;;;;14.93;6.68;;;0.80;71.50;;;;;;4889133;29;27502;-59
2021/03/01 05:41:58;;;;;;;13.80;6.68;;;0.70;71.50;;;;;;4888654;29;27527;-59
2021/03/01 05:44:42;;;;;;;13.82;8.07;;;0.70;71.40;;;;;;4901602;29;27396;-58
2021/03/01 05:47:27;;;;;;;13.43;7.20;;;0.70;71.40;;;;;;4889287;29;27364;-59
2021/03/01 05:50:11;;;;;;;16.52;6.85;;;0.70;71.40;;;;;;4901725;29;27403;-59
2021/03/01 05:52:56;;;;;;;13.60;7.13;;;0.70;71.40;;;;;;4889217;29;27434;-59
2021/03/01 05:55:40;;;;;;;14.02;7.28;;;0.70;71.40;;;;;;4898300;29;27495;-58
2021/03/01 05:58:26;;;;;;;11.57;6.57;;;0.70;71.50;;;;;;4901717;29;27405;-57
2021/03/01 06:01:11;;;;;;;13.30;6.95;;;0.60;71.40;;;;;;4888467;29;27327;-57
2021/03/01 06:03:55;;;;;;;15.73;8.52;;;0.60;71.40;;;;;;4901371;29;27437;-57
2021/03/01 06:06:40;;;;;;;15.45;7.25;;;0.60;71.50;;;;;;4901330;29;27415;-58
2021/03/01 06:09:24;;;;;;;13.45;7.32;;;0.60;71.50;;;;;;4889050;29;27340;-51
2021/03/01 06:12:09;;;;;;;13.45;7.88;;;0.60;71.50;;;;;;4888612;29;27335;-57
2021/03/01 06:14:55;;;;;;;10.80;6.60;;;0.60;71.50;;;;;;4885463;29;27384;-59
2021/03/01 06:17:40;;;;;;;15.68;7.25;;;0.60;71.50;;;;;;4888696;29;27339;-58
2021/03/01 06:20:24;;;;;;;12.43;7.47;;;0.60;71.50;;;;;;4888649;29;27455;-58
2021/03/01 06:23:09;;;;;;;11.57;6.95;;;0.60;71.40;;;;;;4888820;29;27386;-59
2021/03/01 06:25:53;;;;;;;16.27;8.05;;;0.70;71.40;;;;;;4888534;29;27427;-59
2021/03/01 06:28:38;;;;;;;15.63;7.93;;;0.60;71.40;;;;;;4901322;29;27444;-58
2021/03/01 06:31:48;;;;;;;14.88;7.10;;;0.70;71.30;;;;;;4888750;29;27456;-58
2021/03/01 06:34:33;;;;;;;14.80;8.20;;;0.70;71.30;;;;;;4888553;29;28003;-58
2021/03/01 06:37:18;;;;;;;11.73;6.90;;;0.70;71.30;;;;;;4888695;29;27355;-58
2021/03/01 06:40:03;;;;;;;15.13;8.27;;;0.70;71.10;;;;;;4885433;29;27395;-58
2021/03/01 06:42:47;;;;;;;11.00;7.13;;;0.70;71.20;;;;;;4891982;29;27408;-58
2021/03/01 06:45:32;;;;;;;14.00;7.63;;;0.70;71.00;;;;;;4891595;29;27332;-58
2021/03/01 06:48:17;;;;;;;15.88;7.63;;;0.80;70.90;;;;;;4891624;29;27327;-59
2021/03/01 06:51:02;;;;;;;13.65;7.38;;;0.70;70.90;;;;;;4904371;29;27338;-59
2021/03/01 06:53:57;;;;;;;12.48;7.70;;;0.80;70.90;;;;;;4904078;29;27330;-58
2021/03/01 06:56:42;;;;;;;20.73;8.40;;;0.80;70.90;;;;;;4902574;29;27420;-58
2021/03/01 06:59:27;;;;;;;14.15;8.63;;;0.80;70.90;;;;;;4891399;29;27440;-59
2021/03/01 07:02:11;;;;;;;19.17;10.25;;;0.90;70.90;;;;;;4891188;29;28601;-59
2021/03/01 07:04:57;;;;;;;17.55;10.93;;;0.90;70.80;;;;;;4891103;29;27391;-59
2021/03/01 07:07:41;;;;;;;19.05;10.55;;;0.90;70.80;;;;;;4891640;29;27321;-59
2021/03/01 07:10:26;;;;;;;20.55;10.30;;;0.90;70.80;;;;;;4890540;29;27412;-59
2021/03/01 07:13:15;;;;;;;17.05;10.73;;;0.90;70.80;;;;;;4904107;29;27358;-58
2021/03/01 07:16:00;;;;;;;18.23;10.27;;;1.00;70.90;;;;;;4903887;29;27408;-58
2021/03/01 07:18:45;;;;;;;17.70;10.55;;;1.00;70.90;;;;;;4891450;29;27871;-58
2021/03/01 07:21:29;;;;;;;20.50;11.30;;;1.00;70.90;;;;;;4900571;29;27453;-57
2021/03/01 07:24:19;;;;;;;20.25;10.93;;;1.10;70.90;;;;;;4903965;29;27523;-58
2021/03/01 07:27:04;;;;;;;18.67;11.38;;;1.10;70.90;;;;;;4891320;29;27383;-59
2021/03/01 07:29:50;;;;;;;19.35;11.52;;;1.20;71.00;;;;;;4890954;29;28055;-59
2021/03/01 07:32:38;;;;;;;24.08;11.05;;;1.20;71.00;;;;;;4903411;29;27672;-59
2021/03/01 07:35:23;;;;;;;18.10;10.73;;;1.30;71.00;;;;;;4888073;29;27328;-58
2021/03/01 07:38:08;;;;;;;19.83;10.68;;;1.30;70.90;;;;;;4903758;29;27349;-59
2021/03/01 07:40:55;;;;;;;18.33;10.88;;;1.30;71.00;;;;;;4888169;29;27404;-58
2021/03/01 07:43:43;;;;;;;17.58;10.20;;;1.40;71.00;;;;;;4903091;29;27487;-59
2021/03/01 07:46:32;;;;;;;22.98;11.45;;;1.70;71.00;;;;;;4891115;29;27506;-58
2021/03/01 07:49:48;;;;;;;22.80;11.00;;;2.20;69.60;;;;;;4891024;29;27407;-59
2021/03/01 07:52:33;;;;;;;22.45;11.52;;;3.00;67.00;;;;;;4890628;29;27524;-59
2021/03/01 07:55:22;;;;;;;22.65;10.82;;;3.80;64.50;;;;;;4890471;29;27400;-59
2021/03/01 07:58:06;;;;;;;19.58;10.20;;;4.60;62.30;;;;;;4903308;29;27311;-56
2021/03/01 08:00:50;;;;;;;19.45;11.45;;;5.30;60.10;;;;;;4890718;29;27417;-59
2021/03/01 08:03:36;;;;;;;19.42;10.77;;;6.00;58.60;;;;;;4900023;29;27438;-60
2021/03/01 08:06:21;;;;;;;24.15;10.93;;;6.70;57.30;;;;;;4890728;29;27495;-59
2021/03/01 08:09:06;;;;;;;15.75;10.35;;;7.30;56.30;;;;;;4890755;29;27415;-60
2021/03/01 08:11:50;;;;;;;17.27;10.70;;;7.90;55.60;;;;;;4903192;29;27502;-60
2021/03/01 08:15:03;;;;;;;16.40;10.02;;;8.40;55.00;;;;;;4890242;29;27437;-60
2021/03/01 08:17:51;;;;;;;16.60;10.20;;;8.90;55.10;;;;;;4890601;29;27352;-60
2021/03/01 08:20:37;;;;;;;16.42;9.52;;;9.40;53.80;;;;;;4890631;29;27463;-60
2021/03/01 08:23:29;;;;;;;16.65;10.30;;;10.00;53.20;;;;;;4890290;29;27475;-60
2021/03/01 08:26:33;;;;;;;15.90;10.38;;;10.50;52.40;;;;;;4890114;29;27470;-60
2021/03/01 08:29:17;;;;;;;15.05;9.85;;;11.00;52.30;;;;;;4890455;29;27418;-60
2021/03/01 08:32:12;;;;;;;15.32;9.77;;;11.40;52.40;;;;;;4890500;29;27344;-60
2021/03/01 08:35:21;;;;;;;13.38;9.20;;;11.80;52.10;;;;;;4889989;29;27330;-60
2021/03/01 08:38:06;;;;;;;14.77;9.48;;;12.20;51.70;;;;;;4886220;29;27856;-60
2021/03/01 08:40:55;;;;;;;15.23;8.93;;;12.70;51.40;;;;;;4890175;29;27410;-58
2021/03/01 08:43:41;;;;;;;13.90;9.82;;;13.00;51.10;;;;;;4890012;29;27331;-60
2021/03/01 08:46:25;;;;;;;15.25;9.93;;;13.40;50.50;;;;;;4890245;29;27436;-60
2021/03/01 08:49:10;;;;;;;14.07;9.65;;;13.80;50.10;;;;;;4890147;29;27965;-60
2021/03/01 08:51:55;;;;;;;16.75;9.27;;;14.20;49.50;;;;;;4902629;29;27331;-60
2021/03/01 08:54:40;;;;;;;16.77;9.40;;;14.60;49.40;;;;;;4889450;29;27529;-61
2021/03/01 08:57:25;;;;;;;12.82;9.07;;;15.00;49.10;;;;;;4889982;29;27376;-60
2021/03/01 09:00:10;;;;;;;14.48;9.07;;;15.40;48.60;;;;;;4886130;29;27873;-60
2021/03/01 09:03:14;;;;;;;13.57;9.85;;;15.70;49.10;;;;;;4900929;29;27426;-59
2021/03/01 09:06:02;;;;;;;13.07;8.77;;;16.20;47.60;;;;;;4889756;29;27550;-60
2021/03/01 09:08:54;;;;;;;14.65;9.88;;;16.50;47.50;;;;;;4889719;29;27367;-60
2021/03/01 09:11:39;;;;;;;15.30;9.88;;;16.90;46.90;;;;;;4889754;29;27859;-60
2021/03/01 09:14:25;;;;;;;15.75;9.43;;;17.30;46.40;;;;;;4901953;29;27556;-60
2021/03/01 09:17:10;;;;;;;16.30;9.18;;;17.70;45.90;;;;;;4902026;29;27419;-61
2021/03/01 09:19:58;;;;;;;11.68;8.05;;;18.00;45.50;;;;;;4889446;29;27312;-60
2021/03/01 09:22:44;;;;;;;13.07;10.27;;;18.40;45.10;;;;;;4888890;29;27401;-60
2021/03/01 09:25:29;;;;;;;13.38;9.57;;;18.70;44.80;;;;;;4889344;29;27424;-60
2021/03/01 09:28:14;;;;;;;13.85;9.20;;;19.00;44.40;;;;;;4898845;29;27484;-60
2021/03/01 09:31:07;;;;;;;12.95;9.23;;;19.30;44.10;;;;;;4885932;29;27672;-60
2021/03/01 09:33:52;;;;;;;13.65;9.13;;;19.60;43.90;;;;;;4889195;29;27920;-60
2021/03/01 09:36:36;;;;;;;12.90;9.15;;;19.80;43.70;;;;;;4889164;29;27424;-60
2021/03/01 09:39:25;;;;;;;11.20;8.30;;;20.10;43.30;;;;;;4889474;29;27328;-60
2021/03/01 09:42:10;;;;;;;13.77;9.40;;;20.40;42.60;;;;;;4889343;29;27408;-60
2021/03/01 09:44:56;;;;;;;12.32;9.07;;;20.70;42.60;;;;;;4889227;29;27400;-58
2021/03/01 09:47:41;;;;;;;14.05;9.15;;;20.90;42.30;;;;;;4889217;29;27426;-60
2021/03/01 09:50:25;;;;;;;15.63;9.20;;;21.20;42.30;;;;;;4888819;29;27623;-60
2021/03/01 09:53:09;;;;;;;12.57;8.75;;;21.50;41.70;;;;;;4901564;29;27435;-60
2021/03/01 09:55:54;;;;;;;9.98;7.50;;;21.80;41.30;;;;;;4901139;29;27501;-60
2021/03/01 09:58:41;;;;;;;12.68;8.48;;;22.00;40.90;;;;;;4901560;29;27623;-60
2021/03/01 10:01:26;;;;;;;11.00;7.38;;;22.30;40.60;;;;;;4888565;29;27417;-60
2021/03/01 10:04:22;;;;;;;9.32;7.72;;;22.50;40.40;;;;;;4888781;29;27622;-60
2021/03/01 10:07:26;;;;;;;10.75;8.23;;;22.70;40.00;;;;;;4888733;29;27455;-60
2021/03/01 10:10:15;;;;;;;12.40;7.78;;;23.00;39.70;;;;;;4888683;29;27426;-60
2021/03/01 10:13:00;;;;;;;10.05;7.18;;;23.20;39.30;;;;;;4898309;29;27451;-60
2021/03/01 10:15:48;;;;;;;11.48;7.97;;;23.50;39.10;;;;;;4890643;29;27331;-60
2021/03/01 10:18:33;;;;;;;7.10;5.82;;;23.70;38.60;;;;;;4891438;29;27604;-60
2021/03/01 10:21:17;;;;;;;9.90;6.40;;;23.90;38.20;;;;;;4892186;29;27465;-60
2021/03/01 10:24:07;;;;;;;7.40;6.38;;;24.10;37.90;;;;;;4904744;29;27396;-58
2021/03/01 10:27:00;;;;;;;6.78;5.95;;;24.30;37.50;;;;;;4891956;29;27415;-58
2021/03/01 10:29:50;;;;;;;8.50;6.43;;;24.50;37.00;;;;;;4891903;29;27475;-58
2021/03/01 10:32:35;;;;;;;7.82;5.72;;;24.80;36.90;;;;;;4903577;29;27646;-57
2021/03/01 10:35:21;;;;;;;7.10;5.20;;;24.90;36.50;;;;;;4888810;29;27400;-58
2021/03/01 10:38:07;;;;;;;6.50;5.63;;;25.10;36.10;;;;;;4891893;29;27352;-58
2021/03/01 10:40:51;;;;;;;7.32;5.45;;;25.30;35.80;;;;;;4891513;29;27340;-60
2021/03/01 10:43:35;;;;;;;9.85;5.15;;;25.40;35.30;;;;;;4891450;29;27569;-60
2021/03/01 10:46:36;;;;;;;5.22;4.70;;;25.60;34.90;;;;;;4891480;29;27456;-60
2021/03/01 10:49:23;;;;;;;7.45;4.78;;;25.80;34.10;;;;;;4887898;29;27471;-60
2021/03/01 10:52:08;;;;;;;7.00;4.65;;;25.90;34.00;;;;;;4891469;29;27888;-60
2021/03/01 10:54:56;;;;;;;5.75;4.55;;;26.10;33.50;;;;;;4891408;29;27426;-60
2021/03/01 10:57:40;;;;;;;6.10;4.28;;;26.30;33.20;;;;;;4891405;29;27405;-60
2021/03/01 11:00:25;;;;;;;7.18;3.83;;;26.50;32.90;;;;;;4891671;29;27387;-60
2021/03/01 11:03:09;;;;;;;6.07;3.70;;;26.60;31.90;;;;;;4890657;29;27660;-60
2021/03/01 11:05:53;;;;;;;7.47;3.30;;;26.80;31.30;;;;;;4887334;29;27524;-60
2021/03/01 11:08:38;;;;;;;4.40;3.45;;;26.90;30.00;;;;;;4891457;29;27414;-58
2021/03/01 11:11:23;;;;;;;5.82;3.13;;;26.90;29.70;;;;;;4891372;29;27430;-58
2021/03/01 11:14:08;;;;;;;5.85;2.90;;;27.10;29.50;;;;;;4891294;29;27899;-58
2021/03/01 11:16:53;;;;;;;6.25;3.40;;;27.30;29.40;;;;;;4890970;29;27471;-58
2021/03/01 11:19:38;;;;;;;4.55;3.13;;;27.40;29.50;;;;;;4891187;29;27401;-58
2021/03/01 11:22:23;;;;;;;4.07;2.90;;;27.60;29.50;;;;;;4891126;29;27402;-58
2021/03/01 11:25:08;;;;;;;4.50;2.90;;;27.80;29.40;;;;;;4891193;29;27449;-58
2021/03/01 11:27:52;;;;;;;5.15;2.67;;;27.90;28.40;;;;;;4890567;29;27637;-58
2021/03/01 11:30:37;;;;;;;4.70;2.58;;;28.10;28.70;;;;;;4891254;29;27468;-57
2021/03/01 11:33:21;;;;;;;2.92;2.65;;;28.20;28.50;;;;;;4891111;29;27476;-58
2021/03/01 11:36:06;;;;;;;2.95;2.55;;;28.30;28.50;;;;;;4890532;29;27887;-58
2021/03/01 11:38:51;;;;;;;3.17;2.88;;;28.40;27.80;;;;;;4890402;29;27511;-58
2021/03/01 11:41:38;;;;;;;3.15;2.60;;;28.50;27.50;;;;;;4891056;29;27416;-58
2021/03/01 11:44:22;;;;;;;6.05;3.40;;;28.60;27.50;;;;;;4890963;29;27452;-57
2021/03/01 11:47:07;;;;;;;3.95;3.15;;;28.70;26.80;;;;;;4890900;29;27985;-58
2021/03/01 11:49:51;;;;;;;3.63;3.13;;;28.80;27.00;;;;;;4890862;29;27518;-58
2021/03/01 11:52:36;;;;;;;3.05;2.60;;;28.90;26.90;;;;;;4887151;29;27456;-58
2021/03/01 11:55:20;;;;;;;3.22;2.85;;;29.00;26.20;;;;;;4890418;29;27383;-58
2021/03/01 11:58:05;;;;;;;4.82;3.10;;;29.10;25.80;;;;;;4890516;29;27465;-58
2021/03/01 12:00:50;;;;;;;4.32;2.95;;;29.10;25.70;;;;;;4890534;29;27451;-57
2021/03/01 12:03:35;;;;;;;3.83;2.92;;;29.20;26.10;;;;;;4890700;29;27495;-57
2021/03/01 12:06:19;;;;;;;5.57;2.75;;;29.20;26.30;;;;;;4890223;29;27402;-57
2021/03/01 12:09:04;;;;;;;4.72;2.63;;;29.20;25.90;;;;;;4890654;29;27435;-58
2021/03/01 12:11:49;;;;;;;2.78;2.58;;;29.20;26.00;;;;;;4890203;29;27450;-58
2021/03/01 12:14:33;;;;;;;4.80;2.65;;;29.30;26.20;;;;;;4890260;29;27402;-58
2021/03/01 12:17:18;;;;;;;2.97;2.22;;;29.30;26.40;;;;;;4890643;29;27322;-58
2021/03/01 12:20:04;;;;;;;2.88;2.63;;;29.40;25.80;;;;;;4890499;29;27434;-58
2021/03/01 12:22:49;;;;;;;3.55;2.47;;;29.40;26.20;;;;;;4890031;29;27441;-58
2021/03/01 12:25:34;;;;;;;5.38;2.50;;;29.50;25.90;;;;;;4887468;29;27480;-58
2021/03/01 12:28:19;;;;;;;3.72;2.47;;;29.50;25.80;;;;;;4890078;29;27462;-58
2021/03/01 12:31:03;;;;;;;2.45;2.25;;;29.50;25.60;;;;;;4886297;29;27339;-58
2021/03/01 12:33:48;;;;;;;2.75;2.25;;;29.40;24.20;;;;;;4889771;29;27400;-58
2021/03/01 12:36:32;;;;;;;2.42;2.13;;;29.40;25.00;;;;;;4889701;29;27339;-58
2021/03/01 12:39:17;;;;;;;2.80;2.35;;;29.50;25.40;;;;;;4889126;29;27381;-58
2021/03/01 12:42:01;;;;;;;3.55;2.30;;;29.50;25.80;;;;;;4889360;29;27390;-58
2021/03/01 12:44:46;;;;;;;3.80;2.40;;;29.50;25.40;;;;;;4902573;29;27538;-59
2021/03/01 12:47:31;;;;;;;3.20;2.20;;;29.40;25.40;;;;;;4890063;29;27403;-58
2021/03/01 12:50:15;;;;;;;3.70;2.30;;;29.50;26.10;;;;;;4886771;29;27327;-58
2021/03/01 12:53:00;;;;;;;3.45;2.50;;;29.50;25.90;;;;;;4889521;29;27969;-58
2021/03/01 12:55:45;;;;;;;4.03;2.83;;;29.50;25.50;;;;;;4889782;29;27335;-58
2021/03/01 12:58:29;;;;;;;3.05;2.47;;;29.40;24.70;;;;;;4890054;29;27376;-58
2021/03/01 13:01:14;;;;;;;4.47;2.30;;;29.40;24.80;;;;;;4888617;29;27409;-58
2021/03/01 13:03:58;;;;;;;3.25;2.28;;;29.40;25.70;;;;;;4889429;29;27832;-58
2021/03/01 13:06:42;;;;;;;2.45;1.73;;;29.40;26.00;;;;;;4889641;29;27502;-57
2021/03/01 13:09:27;;;;;;;3.10;2.30;;;29.30;26.20;;;;;;4889470;29;27430;-58
2021/03/01 13:12:11;;;;;;;2.65;2.00;;;29.30;26.70;;;;;;4889620;29;27490;-58
2021/03/01 13:14:56;;;;;;;3.50;2.15;;;29.30;26.70;;;;;;4889513;29;27483;-56
2021/03/01 13:17:40;;;;;;;3.20;2.50;;;29.30;26.40;;;;;;4889293;29;27489;-57
2021/03/01 13:20:25;;;;;;;3.55;1.80;;;29.30;26.30;;;;;;4889647;29;27411;-57
2021/03/01 13:23:09;;;;;;;3.30;2.20;;;29.20;26.50;;;;;;4889509;29;27398;-57
2021/03/01 13:25:54;;;;;;;4.25;2.00;;;29.20;26.80;;;;;;4889156;29;27384;-57
2021/03/01 13:28:38;;;;;;;3.95;2.17;;;29.20;26.90;;;;;;4901227;29;27507;-57
2021/03/01 13:31:23;;;;;;;3.28;1.83;;;29.10;26.50;;;;;;4889469;29;27447;-58
2021/03/01 13:34:07;;;;;;;3.83;1.90;;;29.10;26.60;;;;;;4901705;29;27332;-57
2021/03/01 13:36:51;;;;;;;5.68;2.42;;;29.00;26.70;;;;;;4889022;29;27355;-57
2021/03/01 13:39:36;;;;;;;4.25;2.50;;;29.00;26.30;;;;;;4889332;29;27413;-58
2021/03/01 13:42:20;;;;;;;1.95;1.75;;;28.90;26.10;;;;;;4889316;29;27360;-57
2021/03/01 13:45:09;;;;;;;2.83;1.92;;;28.80;26.30;;;;;;4889040;29;27411;-57
2021/03/01 13:47:53;;;;;;;2.17;1.85;;;28.80;26.20;;;;;;4889038;29;27335;-57
2021/03/01 13:50:38;;;;;;;2.67;1.80;;;28.70;26.20;;;;;;4888775;29;27348;-58
2021/03/01 13:53:22;;;;;;;5.25;2.10;;;28.60;26.40;;;;;;4888846;29;27352;-59
2021/03/01 13:56:07;;;;;;;3.55;1.90;;;28.50;26.40;;;;;;4887378;29;27190;-58
2021/03/01 13:58:51;;;;;;;2.78;2.17;;;28.40;26.60;;;;;;4888799;29;27324;-58
2021/03/01 14:01:36;;;;;;;2.17;1.88;;;28.30;27.50;;;;;;4888543;29;27340;-58
2021/03/01 14:04:20;;;;;;;3.42;2.55;;;28.20;27.30;;;;;;4889133;29;27399;-58
2021/03/01 14:07:05;;;;;;;4.05;2.20;;;28.10;26.20;;;;;;4901730;29;27359;-58
2021/03/01 14:09:49;;;;;;;2.47;2.20;;;27.90;26.70;;;;;;4889044;29;27335;-58
2021/03/01 14:12:34;;;;;;;2.85;2.50;;;27.80;26.80;;;;;;4888819;29;27473;-58
2021/03/01 14:15:18;;;;;;;2.72;2.10;;;27.70;26.30;;;;;;4888584;29;27503;-58
2021/03/01 14:18:03;;;;;;;4.78;2.38;;;27.50;26.60;;;;;;4888881;29;27450;-58
2021/03/01 14:20:47;;;;;;;2.83;2.30;;;27.30;27.10;;;;;;4888644;29;27407;-58
2021/03/01 14:23:32;;;;;;;2.67;2.08;;;27.20;27.70;;;;;;4888315;29;27472;-58
2021/03/01 14:26:16;;;;;;;3.15;1.90;;;27.00;28.10;;;;;;4888886;29;27460;-57